Time;durP1;ratioP1;P1;durP2;ratioP2;P2;SDS_P1;SDS_P2;PMS_P1;PMS_P2;Temp;Humidity;BMP_temperature;BMP_pressure;BME280_temperature;BME280_humidity;BME280_pressure;Samples;Min_cycle;Max_cycle;Signal;HPM_P1;HPM_P2
2022/05/05 00:01:52;;;;;;;3.92;2.97;;;;;;;;;;5090794;28;20463;-88
2022/05/05 00:04:22;;;;;;;3.80;2.90;;;;;;;;;;5092702;28;20023;-88
2022/05/05 00:06:48;;;;;;;6.43;3.30;;;;;;;;;;5092612;28;20486;-89
2022/05/05 00:09:14;;;;;;;5.38;3.30;;;;;;;;;;5090692;28;20036;-90
2022/05/05 00:14:23;;;;;;;4.60;2.90;;;;;;;;;;5092030;28;20481;-91
2022/05/05 00:17:09;;;;;;;5.55;3.10;;;;;;;;;;5091493;28;20020;-90
2022/05/05 00:19:36;;;;;;;3.95;3.00;;;;;;;;;;5090213;28;20075;-90
2022/05/05 00:22:05;;;;;;;4.20;3.08;;;;;;;;;;5090734;28;20032;-89
2022/05/05 00:24:32;;;;;;;4.40;2.90;;;;;;;;;;5090923;28;20062;-90
2022/05/05 00:26:58;;;;;;;5.85;3.05;;;;;;;;;;5091727;28;20272;-88
2022/05/05 00:29:23;;;;;;;5.47;3.10;;;;;;;;;;5092150;28;20032;-89
2022/05/05 00:31:50;;;;;;;5.50;3.25;;;;;;;;;;5092000;28;20035;-86
2022/05/05 00:34:16;;;;;;;4.95;3.28;;;;;;;;;;5090888;28;20016;-88
2022/05/05 00:36:42;;;;;;;3.72;2.85;;;;;;;;;;5091621;28;20551;-89
2022/05/05 00:39:08;;;;;;;4.45;2.90;;;;;;;;;;5091790;28;20099;-85
2022/05/05 00:41:35;;;;;;;3.65;3.00;;;;;;;;;;5090425;28;20107;-89
2022/05/05 00:44:05;;;;;;;4.75;2.95;;;;;;;;;;5090839;28;20036;-89
2022/05/05 00:46:31;;;;;;;4.32;3.30;;;;;;;;;;5090872;28;20024;-89
2022/05/05 00:48:57;;;;;;;5.10;3.60;;;;;;;;;;5090792;28;20097;-86
2022/05/05 00:51:23;;;;;;;5.00;3.25;;;;;;;;;;5090697;28;20027;-87
2022/05/05 00:53:49;;;;;;;5.47;3.10;;;;;;;;;;5090895;28;20032;-91
2022/05/05 00:56:16;;;;;;;4.97;2.75;;;;;;;;;;5090785;28;20502;-88
2022/05/05 00:58:45;;;;;;;5.90;3.47;;;;;;;;;;5092110;28;20024;-89
2022/05/05 01:01:13;;;;;;;4.97;3.90;;;;;;;;;;5090402;28;20036;-89
2022/05/05 01:03:39;;;;;;;6.20;3.45;;;;;;;;;;5088186;28;20108;-87
2022/05/05 01:06:08;;;;;;;6.25;3.67;;;;;;;;;;5090434;28;20070;-91
2022/05/05 01:08:35;;;;;;;5.90;3.58;;;;;;;;;;5091010;28;20420;-89
2022/05/05 01:11:01;;;;;;;6.20;3.65;;;;;;;;;;5091107;28;20035;-89
2022/05/05 01:13:27;;;;;;;4.20;3.10;;;;;;;;;;5089926;28;20388;-87
2022/05/05 01:15:55;;;;;;;4.88;3.45;;;;;;;;;;5096110;28;20032;-89
2022/05/05 01:18:21;;;;;;;4.75;3.05;;;;;;;;;;5094110;28;20399;-87
2022/05/05 01:20:48;;;;;;;5.13;3.13;;;;;;;;;;5094132;28;20039;-88
2022/05/05 01:23:15;;;;;;;3.58;3.25;;;;;;;;;;5093662;28;20031;-91
2022/05/05 01:28:25;;;;;;;8.68;3.22;;;;;;;;;;5092473;28;20430;-89
2022/05/05 01:30:52;;;;;;;4.97;3.05;;;;;;;;;;5094875;28;20032;-88
2022/05/05 01:33:23;;;;;;;7.22;3.83;;;;;;;;;;5094321;28;20103;-93
2022/05/05 01:35:55;;;;;;;7.40;3.80;;;;;;;;;;5095917;28;20043;-86
2022/05/05 01:38:23;;;;;;;6.60;4.20;;;;;;;;;;5095029;28;20167;-90
2022/05/05 01:40:49;;;;;;;5.75;3.60;;;;;;;;;;5125710;27;20028;-88
2022/05/05 01:43:19;;;;;;;5.45;3.20;;;;;;;;;;5093931;28;20062;-91
2022/05/05 01:45:45;;;;;;;5.95;3.30;;;;;;;;;;5094027;28;20052;-89
2022/05/05 01:48:12;;;;;;;3.53;2.33;;;;;;;;;;5095446;28;20475;-91
2022/05/05 01:50:38;;;;;;;4.45;3.33;;;;;;;;;;5093895;28;20024;-85
2022/05/05 01:53:04;;;;;;;3.80;2.95;;;;;;;;;;5094078;28;20102;-89
2022/05/05 01:55:31;;;;;;;3.35;2.70;;;;;;;;;;5093846;28;20483;-89
2022/05/05 01:57:58;;;;;;;4.00;2.90;;;;;;;;;;5093481;28;20031;-88
2022/05/05 02:00:24;;;;;;;3.78;2.60;;;;;;;;;;5095341;28;20035;-88
2022/05/05 02:02:50;;;;;;;3.25;2.53;;;;;;;;;;5093446;28;20062;-89
2022/05/05 02:05:16;;;;;;;3.45;2.97;;;;;;;;;;5093758;28;20110;-89
2022/05/05 02:07:43;;;;;;;3.80;2.80;;;;;;;;;;5095193;28;20020;-89
2022/05/05 02:10:14;;;;;;;4.18;2.88;;;;;;;;;;5093194;28;20024;-87
2022/05/05 02:12:39;;;;;;;3.50;2.88;;;;;;;;;;5094647;28;20028;-89
2022/05/05 02:15:06;;;;;;;5.10;3.03;;;;;;;;;;5093039;28;20433;-86
2022/05/05 02:17:39;;;;;;;4.68;3.28;;;;;;;;;;5094081;28;20020;-89
2022/05/05 02:20:06;;;;;;;3.35;2.65;;;;;;;;;;5093108;28;20035;-86
2022/05/05 02:22:32;;;;;;;4.40;2.72;;;;;;;;;;5094286;28;20024;-90
2022/05/05 02:24:58;;;;;;;4.18;2.80;;;;;;;;;;5092982;28;20042;-90
2022/05/05 02:27:24;;;;;;;3.78;2.65;;;;;;;;;;5090218;28;20024;-90
2022/05/05 02:29:50;;;;;;;3.55;2.85;;;;;;;;;;5093144;28;20471;-87
2022/05/05 02:32:16;;;;;;;3.70;2.60;;;;;;;;;;5092590;28;20107;-87
2022/05/05 02:34:44;;;;;;;4.78;2.35;;;;;;;;;;5092965;28;20035;-88
2022/05/05 02:40:04;;;;;;;4.95;2.67;;;;;;;;;;5094946;28;20433;-86
2022/05/05 02:42:30;;;;;;;4.75;3.17;;;;;;;;;;5092264;28;20032;-90
2022/05/05 02:44:55;;;;;;;3.90;2.80;;;;;;;;;;5093955;28;20020;-89
2022/05/05 02:47:21;;;;;;;6.57;3.20;;;;;;;;;;5092768;28;20119;-89
2022/05/05 02:49:46;;;;;;;3.58;2.53;;;;;;;;;;5092442;28;20077;-90
2022/05/05 02:52:12;;;;;;;3.08;2.35;;;;;;;;;;5094405;28;20023;-90
2022/05/05 02:54:47;;;;;;;4.25;2.20;;;;;;;;;;5092368;28;20038;-88
2022/05/05 02:57:15;;;;;;;4.30;3.17;;;;;;;;;;5092288;28;20069;-87
2022/05/05 02:59:41;;;;;;;4.03;2.28;;;;;;;;;;5092186;28;20113;-92
2022/05/05 03:02:07;;;;;;;6.18;3.13;;;;;;;;;;5092838;28;20051;-87
2022/05/05 03:04:32;;;;;;;5.10;3.40;;;;;;;;;;5093975;28;20039;-89
2022/05/05 03:06:59;;;;;;;5.10;3.70;;;;;;;;;;5093163;28;20016;-90
2022/05/05 03:09:24;;;;;;;6.97;4.03;;;;;;;;;;5092629;28;20058;-88
2022/05/05 03:11:50;;;;;;;6.28;4.57;;;;;;;;;;5093043;28;20195;-85
2022/05/05 03:14:15;;;;;;;4.20;3.30;;;;;;;;;;5091125;28;20031;-85
2022/05/05 03:16:40;;;;;;;4.45;3.33;;;;;;;;;;5091799;28;20032;-87
2022/05/05 03:19:07;;;;;;;4.93;2.70;;;;;;;;;;5091862;28;20108;-85
2022/05/05 03:21:33;;;;;;;3.92;3.17;;;;;;;;;;5092632;28;20035;-84
2022/05/05 03:23:58;;;;;;;3.50;2.47;;;;;;;;;;5092619;28;20028;-87
2022/05/05 03:26:24;;;;;;;4.75;2.60;;;;;;;;;;5091044;28;20043;-84
2022/05/05 03:28:50;;;;;;;4.32;3.03;;;;;;;;;;5091443;28;20039;-85
2022/05/05 03:31:16;;;;;;;5.05;3.08;;;;;;;;;;5092628;28;20024;-87
2022/05/05 03:33:42;;;;;;;5.43;3.80;;;;;;;;;;5091774;28;20563;-87
2022/05/05 03:36:07;;;;;;;5.45;3.03;;;;;;;;;;5092663;28;20348;-89
2022/05/05 03:38:32;;;;;;;3.67;3.00;;;;;;;;;;5091350;28;20067;-89
2022/05/05 03:40:58;;;;;;;4.55;3.10;;;;;;;;;;5092842;28;20024;-88
2022/05/05 03:43:24;;;;;;;3.85;3.00;;;;;;;;;;5091720;28;20035;-86
2022/05/05 03:45:49;;;;;;;4.38;3.00;;;;;;;;;;5092686;28;20073;-87
2022/05/05 03:48:15;;;;;;;3.70;2.92;;;;;;;;;;5091778;28;20387;-87
2022/05/05 03:50:40;;;;;;;5.18;2.70;;;;;;;;;;5091283;28;20391;-90
2022/05/05 03:53:06;;;;;;;3.90;2.78;;;;;;;;;;5091367;28;20103;-88
2022/05/05 03:55:31;;;;;;;4.50;2.97;;;;;;;;;;5090603;28;20031;-87
2022/05/05 03:57:57;;;;;;;5.43;2.70;;;;;;;;;;5092130;28;20035;-88
2022/05/05 04:00:23;;;;;;;4.18;3.00;;;;;;;;;;5091863;28;20020;-87
2022/05/05 04:03:36;;;;;;;5.22;3.25;;;;;;;;;;5091438;28;20050;-87
2022/05/05 04:05:35;;;;;;;4.57;3.17;;;;;;;;;;5086914;28;20040;-89
2022/05/05 04:08:02;;;;;;;5.57;3.22;;;;;;;;;;5092293;28;20156;-88
2022/05/05 04:10:28;;;;;;;4.03;2.97;;;;;;;;;;5090920;28;20107;-89
2022/05/05 04:12:55;;;;;;;5.00;3.08;;;;;;;;;;5090838;28;20114;-87
2022/05/05 04:15:22;;;;;;;4.18;3.13;;;;;;;;;;5092622;28;20645;-88
2022/05/05 04:17:48;;;;;;;3.78;2.65;;;;;;;;;;5091256;28;20031;-86
2022/05/05 04:20:14;;;;;;;2.67;2.45;;;;;;;;;;5090212;28;20375;-87
2022/05/05 04:22:40;;;;;;;4.40;3.28;;;;;;;;;;5089797;28;20028;-88
2022/05/05 04:25:06;;;;;;;4.40;3.35;;;;;;;;;;5090303;28;20051;-86
2022/05/05 04:27:32;;;;;;;5.93;4.40;;;;;;;;;;5091664;28;20028;-87
2022/05/05 04:29:57;;;;;;;5.00;3.67;;;;;;;;;;5090679;28;20020;-88
2022/05/05 04:32:23;;;;;;;5.53;3.90;;;;;;;;;;5090245;28;20020;-89
2022/05/05 04:34:48;;;;;;;9.88;5.53;;;;;;;;;;5091851;28;20043;-86
2022/05/05 04:37:14;;;;;;;11.23;6.93;;;;;;;;;;5090338;28;20174;-87
2022/05/05 04:39:42;;;;;;;10.80;6.28;;;;;;;;;;5090463;28;20043;-88
2022/05/05 04:42:08;;;;;;;13.00;8.05;;;;;;;;;;5090567;28;20023;-87
2022/05/05 04:44:41;;;;;;;12.13;8.55;;;;;;;;;;5090581;28;20104;-86
2022/05/05 04:47:07;;;;;;;17.05;11.10;;;;;;;;;;5090288;28;20103;-89
2022/05/05 04:49:32;;;;;;;17.13;11.70;;;;;;;;;;5093789;28;20486;-89
2022/05/05 04:51:58;;;;;;;19.75;12.95;;;;;;;;;;5093832;28;20024;-86
2022/05/05 04:54:23;;;;;;;21.30;13.05;;;;;;;;;;5094580;28;20020;-86
2022/05/05 04:56:49;;;;;;;19.05;13.07;;;;;;;;;;5094060;28;20028;-89
2022/05/05 04:59:14;;;;;;;19.38;13.63;;;;;;;;;;5095481;28;20039;-89
2022/05/05 05:01:40;;;;;;;18.35;12.70;;;;;;;;;;5093798;28;20032;-87
2022/05/05 05:04:06;;;;;;;24.77;13.85;;;;;;;;;;5093360;28;20020;-87
2022/05/05 05:06:32;;;;;;;20.08;13.32;;;;;;;;;;5092859;28;20038;-88
2022/05/05 05:08:58;;;;;;;22.45;12.65;;;;;;;;;;5095511;28;20024;-88
2022/05/05 05:11:24;;;;;;;18.42;11.73;;;;;;;;;;5093689;28;20028;-87
2022/05/05 05:13:49;;;;;;;14.43;10.38;;;;;;;;;;5095049;28;20028;-86
2022/05/05 05:16:15;;;;;;;16.83;11.50;;;;;;;;;;5093823;28;20031;-88
2022/05/05 05:18:40;;;;;;;16.55;11.68;;;;;;;;;;5093379;28;20047;-87
2022/05/05 05:21:06;;;;;;;19.73;12.80;;;;;;;;;;5089445;28;20527;-87
2022/05/05 05:23:32;;;;;;;22.10;13.65;;;;;;;;;;5093642;28;20463;-86
2022/05/05 05:25:58;;;;;;;21.48;13.18;;;;;;;;;;5093365;28;20081;-87
2022/05/05 05:28:24;;;;;;;22.58;14.70;;;;;;;;;;5093327;28;20106;-86
2022/05/05 05:30:49;;;;;;;19.77;13.10;;;;;;;;;;5095062;28;20070;-86
2022/05/05 05:33:14;;;;;;;21.40;13.55;;;;;;;;;;5093869;28;20129;-87
2022/05/05 05:35:40;;;;;;;20.88;14.40;;;;;;;;;;5094649;28;20024;-87
2022/05/05 05:38:07;;;;;;;22.13;13.55;;;;;;;;;;5093579;28;20399;-85
2022/05/05 05:40:32;;;;;;;21.10;14.32;;;;;;;;;;5094560;28;20039;-90
2022/05/05 05:42:58;;;;;;;29.60;17.98;;;;;;;;;;5094050;28;20028;-87
2022/05/05 05:45:24;;;;;;;25.70;17.67;;;;;;;;;;5093205;28;20055;-88
2022/05/05 05:47:50;;;;;;;44.70;23.58;;;;;;;;;;5094513;28;20078;-89
2022/05/05 05:50:16;;;;;;;40.08;20.25;;;;;;;;;;5093889;28;20024;-88
2022/05/05 05:52:41;;;;;;;30.27;17.65;;;;;;;;;;5095350;28;20028;-89
2022/05/05 05:55:07;;;;;;;33.22;20.23;;;;;;;;;;5093856;28;20475;-90
2022/05/05 05:57:32;;;;;;;43.10;22.20;;;;;;;;;;5094572;28;20440;-88
2022/05/05 05:59:58;;;;;;;52.78;27.38;;;;;;;;;;5094424;28;20027;-86
2022/05/05 06:05:08;;;;;;;37.95;21.33;;;;;;;;;;5089146;28;20092;-90
2022/05/05 06:07:33;;;;;;;32.22;19.67;;;;;;;;;;5095540;28;20463;-88
2022/05/05 06:10:03;;;;;;;31.33;17.90;;;;;;;;;;5094928;28;20114;-86
2022/05/05 06:12:30;;;;;;;;;;;;;;;;;;5095071;28;20024;-89
2022/05/05 06:14:55;;;;;;;41.03;21.52;;;;;;;;;;5094533;28;19916;-88
2022/05/05 06:17:21;;;;;;;32.60;19.02;;;;;;;;;;5095063;28;20039;-90
2022/05/05 06:19:46;;;;;;;27.40;16.88;;;;;;;;;;5095498;28;20051;-89
2022/05/05 06:22:12;;;;;;;33.60;18.55;;;;;;;;;;5094767;28;20040;-91
2022/05/05 06:24:37;;;;;;;27.50;18.35;;;;;;;;;;5096020;28;20031;-90
2022/05/05 06:27:03;;;;;;;39.28;20.98;;;;;;;;;;5095520;28;20016;-86
2022/05/05 06:29:30;;;;;;;30.35;18.85;;;;;;;;;;5096060;28;20024;-91
2022/05/05 06:31:55;;;;;;;32.67;18.10;;;;;;;;;;5094749;28;20035;-89
2022/05/05 06:34:21;;;;;;;46.67;25.98;;;;;;;;;;5093981;28;20024;-89
2022/05/05 06:36:46;;;;;;;35.63;20.83;;;;;;;;;;5093625;28;20112;-90
2022/05/05 06:39:12;;;;;;;28.65;17.10;;;;;;;;;;5093671;28;20077;-91
2022/05/05 06:41:37;;;;;;;26.52;16.10;;;;;;;;;;5094873;28;20038;-91
2022/05/05 06:44:03;;;;;;;28.58;16.45;;;;;;;;;;5095211;28;20031;-92
2022/05/05 06:46:29;;;;;;;26.38;16.58;;;;;;;;;;5093682;28;20478;-86
2022/05/05 06:48:55;;;;;;;29.98;17.38;;;;;;;;;;5095170;28;20403;-85
2022/05/05 06:51:21;;;;;;;29.77;17.20;;;;;;;;;;5094919;28;20205;-88
2022/05/05 06:53:46;;;;;;;29.83;17.27;;;;;;;;;;5093358;28;20027;-86
2022/05/05 06:56:12;;;;;;;28.13;18.52;;;;;;;;;;5094162;28;20086;-90
2022/05/05 06:58:37;;;;;;;26.92;17.77;;;;;;;;;;5094117;28;20043;-87
2022/05/05 07:03:47;;;;;;;34.90;21.60;;;;;;;;;;5096996;28;20038;-89
2022/05/05 07:06:12;;;;;;;29.30;18.67;;;;;;;;;;5096175;28;20024;-86
2022/05/05 07:11:23;;;;;;;35.45;21.10;;;;;;;;;;5092399;28;20058;-88
2022/05/05 07:13:48;;;;;;;33.67;18.40;;;;;;;;;;5094530;28;20047;-88
2022/05/05 07:16:14;;;;;;;31.88;20.23;;;;;;;;;;5093929;28;20456;-88
2022/05/05 07:18:41;;;;;;;32.70;20.38;;;;;;;;;;5093151;28;20027;-86
2022/05/05 07:21:12;;;;;;;34.13;17.90;;;;;;;;;;5093671;28;20032;-88
2022/05/05 07:23:38;;;;;;;33.25;19.70;;;;;;;;;;5091974;28;20024;-85
2022/05/05 07:26:03;;;;;;;27.70;18.20;;;;;;;;;;5091974;28;20104;-85
2022/05/05 07:28:29;;;;;;;34.33;17.52;;;;;;;;;;5092257;28;20059;-84
2022/05/05 07:30:54;;;;;;;29.52;17.83;;;;;;;;;;5091879;28;20024;-85
2022/05/05 07:33:20;;;;;;;30.55;18.77;;;;;;;;;;5092852;28;20028;-90
2022/05/05 07:35:47;;;;;;;30.13;17.95;;;;;;;;;;5090901;28;20500;-86
2022/05/05 07:38:13;;;;;;;26.55;17.83;;;;;;;;;;5090348;28;20032;-85
2022/05/05 07:40:38;;;;;;;23.77;16.77;;;;;;;;;;5091440;28;20032;-87
2022/05/05 07:43:04;;;;;;;24.95;16.40;;;;;;;;;;5092661;28;20051;-84
2022/05/05 07:45:29;;;;;;;24.33;14.60;;;;;;;;;;5092550;28;20096;-88
2022/05/05 07:47:59;;;;;;;32.63;16.95;;;;;;;;;;5090977;28;20077;-84
2022/05/05 07:50:27;;;;;;;24.40;15.23;;;;;;;;;;5092031;28;20694;-86
2022/05/05 07:52:52;;;;;;;24.33;16.30;;;;;;;;;;5092634;28;20027;-86
2022/05/05 07:55:17;;;;;;;26.15;15.25;;;;;;;;;;5092324;28;20024;-84
2022/05/05 07:57:47;;;;;;;23.38;15.05;;;;;;;;;;5092158;28;20024;-85
2022/05/05 08:00:13;;;;;;;22.90;16.00;;;;;;;;;;5092456;28;20129;-86
2022/05/05 08:02:39;;;;;;;25.52;15.55;;;;;;;;;;5088563;28;20035;-84
2022/05/05 08:05:07;;;;;;;23.80;15.55;;;;;;;;;;5090479;28;20024;-84
2022/05/05 08:07:32;;;;;;;24.77;14.85;;;;;;;;;;5090881;28;20460;-85
2022/05/05 08:09:58;;;;;;;24.63;16.67;;;;;;;;;;5090308;28;20031;-85
2022/05/05 08:12:23;;;;;;;22.85;15.35;;;;;;;;;;5088709;28;20020;-85
2022/05/05 08:14:49;;;;;;;24.48;16.00;;;;;;;;;;5092124;28;20028;-86
2022/05/05 08:17:14;;;;;;;27.23;16.52;;;;;;;;;;5091888;28;20106;-86
2022/05/05 08:19:40;;;;;;;27.83;17.08;;;;;;;;;;5091914;28;20054;-86
2022/05/05 08:22:05;;;;;;;39.55;21.33;;;;;;;;;;5091299;28;20032;-84
2022/05/05 08:30:03;;;;;;;34.60;19.08;;;;;;;;;;5091183;28;20039;-85
2022/05/05 08:32:29;;;;;;;27.40;16.38;;;;;;;;;;5090320;28;20085;-85
2022/05/05 08:34:55;;;;;;;35.22;20.83;;;;;;;;;;5091763;28;20024;-86
2022/05/05 08:37:20;;;;;;;37.22;20.38;;;;;;;;;;5088580;28;20119;-88
2022/05/05 08:39:46;;;;;;;23.50;14.90;;;;;;;;;;5089504;28;20024;-86
2022/05/05 08:42:11;;;;;;;25.48;14.77;;;;;;;;;;5091945;28;20062;-89
2022/05/05 08:44:37;;;;;;;29.38;17.38;;;;;;;;;;5092275;28;20055;-86
2022/05/05 08:47:04;;;;;;;28.35;15.05;;;;;;;;;;5091306;28;20028;-85
2022/05/05 08:49:31;;;;;;;29.70;15.23;;;;;;;;;;5090223;28;20040;-88
2022/05/05 08:52:02;;;;;;;20.52;12.40;;;;;;;;;;5090192;28;20101;-85
2022/05/05 08:54:32;;;;;;;15.40;9.75;;;;;;;;;;5091615;28;20038;-84
2022/05/05 08:56:57;;;;;;;;;;;;;;;;;;5090563;28;20435;-89
2022/05/05 08:59:25;;;;;;;14.93;8.88;;;;;;;;;;5090221;28;19963;-85
2022/05/05 09:01:52;;;;;;;12.77;6.90;;;;;;;;;;5083626;28;20063;-86
2022/05/05 09:04:19;;;;;;;8.90;6.05;;;;;;;;;;5086452;28;20024;-85
2022/05/05 09:06:49;;;;;;;7.95;5.70;;;;;;;;;;5090203;28;20028;-86
2022/05/05 09:09:33;;;;;;;10.65;7.10;;;;;;;;;;5090697;28;20031;-84
2022/05/05 09:12:17;;;;;;;11.45;6.57;;;;;;;;;;5089603;28;20031;-88
2022/05/05 09:14:48;;;;;;;5.78;4.07;;;;;;;;;;5092243;28;20104;-87
2022/05/05 09:17:22;;;;;;;6.82;3.80;;;;;;;;;;5088959;28;20027;-85
2022/05/05 09:19:59;;;;;;;6.50;3.80;;;;;;;;;;5091371;28;20357;-84
2022/05/05 09:22:27;;;;;;;6.05;4.00;;;;;;;;;;5090609;28;20039;-91
2022/05/05 09:24:56;;;;;;;10.02;6.47;;;;;;;;;;5091582;28;20035;-89
2022/05/05 09:27:33;;;;;;;5.90;5.03;;;;;;;;;;5088694;28;20031;-85
2022/05/05 09:30:10;;;;;;;10.18;5.90;;;;;;;;;;5089786;28;20020;-85
2022/05/05 09:32:47;;;;;;;8.40;5.53;;;;;;;;;;5088259;28;20438;-87
2022/05/05 09:35:18;;;;;;;7.78;6.28;;;;;;;;;;5091366;28;20032;-85
2022/05/05 09:37:48;;;;;;;12.38;8.30;;;;;;;;;;5093346;28;20043;-89
2022/05/05 09:40:17;;;;;;;19.08;7.50;;;;;;;;;;5095460;28;20437;-85
2022/05/05 09:42:51;;;;;;;8.52;5.68;;;;;;;;;;5093868;28;20084;-89
2022/05/05 09:45:21;;;;;;;5.80;4.25;;;;;;;;;;5091571;28;20028;-83
2022/05/05 09:47:47;;;;;;;7.55;5.82;;;;;;;;;;5086899;28;20391;-84
2022/05/05 09:50:14;;;;;;;10.15;6.47;;;;;;;;;;5092686;28;20031;-88
2022/05/05 09:58:28;;;;;;;7.57;5.70;;;;;;;;;;5081340;28;20051;-83
2022/05/05 10:06:19;;;;;;;6.07;4.65;;;;;;;;;;5093255;28;20090;-86
2022/05/05 10:08:45;;;;;;;6.90;3.80;;;;;;;;;;5093996;28;20031;-87
2022/05/05 10:11:14;;;;;;;7.18;4.10;;;;;;;;;;5093062;28;20042;-84
2022/05/05 10:13:40;;;;;;;4.97;3.53;;;;;;;;;;5092839;28;20036;-88
2022/05/05 10:16:07;;;;;;;5.90;3.75;;;;;;;;;;5089031;28;20077;-84
2022/05/05 10:18:38;;;;;;;5.13;3.88;;;;;;;;;;5091899;28;20706;-84
2022/05/05 10:21:22;;;;;;;6.25;3.88;;;;;;;;;;5090384;28;20085;-84
2022/05/05 10:24:19;;;;;;;7.07;4.28;;;;;;;;;;5092121;28;20024;-85
2022/05/05 10:26:49;;;;;;;6.60;3.95;;;;;;;;;;5108826;28;20544;-86
2022/05/05 10:29:44;;;;;;;6.00;3.75;;;;;;;;;;5092583;28;20020;-84
2022/05/05 10:32:22;;;;;;;5.82;3.45;;;;;;;;;;5092626;28;20016;-87
2022/05/05 10:35:07;;;;;;;5.70;3.85;;;;;;;;;;5092738;28;20028;-86
2022/05/05 10:37:38;;;;;;;4.97;3.33;;;;;;;;;;5090340;28;20077;-83
2022/05/05 10:40:08;;;;;;;6.53;3.03;;;;;;;;;;5091286;28;20024;-86
2022/05/05 10:42:41;;;;;;;;;;;;;;;;;;5092596;28;20542;-86
2022/05/05 10:45:39;;;;;;;4.85;3.03;;;;;;;;;;5088487;28;19919;-85
2022/05/05 10:48:06;;;;;;;4.20;2.40;;;;;;;;;;5056706;28;20233;-84
2022/05/05 10:50:59;;;;;;;3.00;2.38;;;;;;;;;;5093523;28;20028;-88
2022/05/05 10:53:36;;;;;;;3.83;2.55;;;;;;;;;;5092458;28;20471;-85
2022/05/05 10:56:25;;;;;;;4.03;2.97;;;;;;;;;;5091943;28;20092;-87
2022/05/05 10:59:07;;;;;;;6.68;3.33;;;;;;;;;;5091834;28;20448;-83
2022/05/05 11:01:42;;;;;;;3.40;2.60;;;;;;;;;;5093211;28;20023;-82
2022/05/05 11:04:25;;;;;;;5.65;3.30;;;;;;;;;;5091541;28;20030;-84
2022/05/05 11:07:29;;;;;;;5.20;3.20;;;;;;;;;;5091779;28;20074;-83
2022/05/05 11:09:54;;;;;;;6.28;2.90;;;;;;;;;;5089759;28;20072;-83
2022/05/05 11:12:22;;;;;;;3.53;3.00;;;;;;;;;;5092623;28;20026;-86
2022/05/05 11:23:48;;;;;;;4.72;2.70;;;;;;;;;;5093202;28;20127;-84
2022/05/05 11:26:16;;;;;;;4.35;3.28;;;;;;;;;;5092893;28;20024;-84
2022/05/05 11:28:41;;;;;;;4.20;2.67;;;;;;;;;;5092762;28;20024;-83
2022/05/05 11:31:19;;;;;;;5.82;3.00;;;;;;;;;;5092354;28;20511;-87
2022/05/05 11:34:03;;;;;;;2.72;2.25;;;;;;;;;;5092677;28;20379;-83
2022/05/05 11:36:31;;;;;;;3.55;2.40;;;;;;;;;;5088795;28;20040;-87
2022/05/05 11:38:57;;;;;;;3.70;2.10;;;;;;;;;;5090185;28;20046;-83
2022/05/05 11:41:23;;;;;;;2.53;1.90;;;;;;;;;;5091448;28;20035;-85
2022/05/05 11:46:36;;;;;;;2.28;1.70;;;;;;;;;;5090506;28;20081;-83
2022/05/05 11:49:02;;;;;;;2.42;1.83;;;;;;;;;;5090633;28;20111;-84
2022/05/05 11:51:32;;;;;;;2.55;1.98;;;;;;;;;;5091279;28;20066;-87
2022/05/05 11:54:14;;;;;;;3.33;1.88;;;;;;;;;;5092374;28;20023;-85
2022/05/05 11:56:46;;;;;;;3.30;2.20;;;;;;;;;;5091270;28;20493;-84
2022/05/05 12:02:04;;;;;;;4.00;2.72;;;;;;;;;;5091668;28;20065;-84
2022/05/05 12:04:31;;;;;;;4.45;2.45;;;;;;;;;;5090444;28;20020;-86
2022/05/05 12:06:58;;;;;;;4.95;2.13;;;;;;;;;;5092044;28;20046;-86
2022/05/05 12:09:23;;;;;;;3.58;2.20;;;;;;;;;;5091825;28;20051;-86
2022/05/05 12:11:49;;;;;;;4.13;2.08;;;;;;;;;;5090938;28;20032;-86
2022/05/05 12:14:16;;;;;;;3.75;2.10;;;;;;;;;;5090904;28;20043;-84
2022/05/05 12:16:44;;;;;;;2.28;1.90;;;;;;;;;;5091550;28;20020;-89
2022/05/05 12:19:13;;;;;;;3.00;1.80;;;;;;;;;;5090942;28;20013;-85
2022/05/05 12:21:57;;;;;;;2.85;2.10;;;;;;;;;;5088145;28;20420;-86
2022/05/05 12:24:24;;;;;;;3.47;1.90;;;;;;;;;;5091619;28;20491;-88
2022/05/05 12:27:07;;;;;;;2.55;2.17;;;;;;;;;;5089276;28;20028;-85
2022/05/05 12:29:41;;;;;;;5.15;3.95;;;;;;;;;;5090751;28;20107;-86
2022/05/05 12:32:15;;;;;;;4.97;2.10;;;;;;;;;;5090564;28;20032;-87
2022/05/05 12:34:41;;;;;;;2.90;2.05;;;;;;;;;;5091057;28;20038;-87
2022/05/05 12:37:19;;;;;;;3.55;2.20;;;;;;;;;;5090386;28;21306;-87
2022/05/05 12:40:05;;;;;;;2.58;2.03;;;;;;;;;;5087188;28;20024;-88
2022/05/05 12:42:58;;;;;;;2.80;2.20;;;;;;;;;;5090110;28;20467;-89
2022/05/05 12:45:27;;;;;;;2.13;1.58;;;;;;;;;;5088328;28;20077;-87
2022/05/05 12:47:54;;;;;;;5.43;3.60;;;;;;;;;;5091313;28;20043;-86
2022/05/05 12:50:41;;;;;;;3.40;2.47;;;;;;;;;;5091150;28;20039;-85
2022/05/05 13:01:35;;;;;;;2.28;1.63;;;;;;;;;;5089102;28;20038;-86
2022/05/05 13:04:05;;;;;;;3.55;2.08;;;;;;;;;;5089014;28;20032;-83
2022/05/05 13:06:32;;;;;;;2.45;1.85;;;;;;;;;;5091792;28;20036;-88
2022/05/05 13:08:57;;;;;;;5.07;3.13;;;;;;;;;;5089768;28;20464;-88
2022/05/05 13:11:23;;;;;;;5.78;3.65;;;;;;;;;;5095096;28;20071;-89
2022/05/05 13:13:50;;;;;;;2.97;2.22;;;;;;;;;;5095337;28;20054;-89
2022/05/05 13:16:16;;;;;;;3.97;2.38;;;;;;;;;;5094986;28;20028;-86
2022/05/05 13:18:42;;;;;;;4.35;2.90;;;;;;;;;;5095479;28;20020;-85
2022/05/05 13:21:08;;;;;;;5.32;2.20;;;;;;;;;;5093976;28;20059;-86
2022/05/05 13:23:34;;;;;;;4.38;3.08;;;;;;;;;;5094780;28;20052;-89
2022/05/05 13:26:00;;;;;;;5.07;2.55;;;;;;;;;;5091740;28;20067;-85
2022/05/05 13:28:25;;;;;;;3.30;2.45;;;;;;;;;;5090385;28;20184;-85
2022/05/05 13:30:51;;;;;;;3.85;2.40;;;;;;;;;;5093915;28;20130;-87
2022/05/05 13:33:16;;;;;;;2.65;1.90;;;;;;;;;;5093341;28;20020;-85
2022/05/05 13:35:42;;;;;;;2.78;1.80;;;;;;;;;;5091934;28;20539;-83
2022/05/05 13:38:08;;;;;;;4.05;2.67;;;;;;;;;;5093890;28;20036;-86
2022/05/05 13:40:34;;;;;;;1.85;1.60;;;;;;;;;;5094932;28;20399;-86
2022/05/05 13:43:00;;;;;;;2.78;1.83;;;;;;;;;;5094607;28;20036;-87
2022/05/05 13:45:27;;;;;;;3.50;2.20;;;;;;;;;;5093057;28;20035;-86
2022/05/05 13:47:53;;;;;;;2.97;2.47;;;;;;;;;;5089327;28;20360;-85
2022/05/05 13:50:20;;;;;;;3.53;2.30;;;;;;;;;;5094560;28;20077;-89
2022/05/05 13:52:46;;;;;;;3.45;1.70;;;;;;;;;;5091272;28;20455;-88
2022/05/05 13:55:12;;;;;;;2.97;1.70;;;;;;;;;;5091858;28;20020;-88
2022/05/05 13:57:40;;;;;;;4.00;1.95;;;;;;;;;;5094550;28;20027;-83
2022/05/05 14:00:07;;;;;;;2.75;1.98;;;;;;;;;;5094329;28;20506;-87
2022/05/05 14:02:33;;;;;;;2.05;1.70;;;;;;;;;;5093328;28;20080;-85
2022/05/05 14:04:59;;;;;;;2.67;1.40;;;;;;;;;;5090147;28;20024;-85
2022/05/05 14:12:55;;;;;;;1.80;1.52;;;;;;;;;;5093059;28;20034;-83
2022/05/05 14:15:21;;;;;;;4.20;2.45;;;;;;;;;;5093840;28;20020;-88
2022/05/05 14:17:47;;;;;;;3.28;2.20;;;;;;;;;;5107705;28;20024;-84
2022/05/05 14:20:12;;;;;;;2.75;1.60;;;;;;;;;;5090170;28;20391;-88
2022/05/05 14:22:40;;;;;;;2.50;1.90;;;;;;;;;;5090720;28;20023;-85
2022/05/05 14:25:10;;;;;;;2.80;2.00;;;;;;;;;;5092426;28;20031;-83
2022/05/05 14:27:35;;;;;;;;;;;;;;;;;;5094489;28;20032;-85
2022/05/05 14:30:03;;;;;;;2.63;1.75;;;;;;;;;;5087417;28;19912;-85
2022/05/05 14:32:28;;;;;;;2.33;1.60;;;;;;;;;;5093778;28;20901;-88
2022/05/05 14:34:54;;;;;;;2.88;1.63;;;;;;;;;;5093848;28;20023;-87
2022/05/05 14:37:19;;;;;;;1.95;1.50;;;;;;;;;;5093155;28;20569;-87
2022/05/05 14:39:48;;;;;;;2.55;1.73;;;;;;;;;;5093743;28;20456;-85
2022/05/05 14:42:13;;;;;;;2.80;1.80;;;;;;;;;;5087779;28;20029;-84
2022/05/05 14:44:39;;;;;;;1.80;1.70;;;;;;;;;;5093588;28;20030;-86
2022/05/05 14:47:08;;;;;;;5.32;4.63;;;;;;;;;;5093316;28;20052;-87
2022/05/05 14:49:35;;;;;;;5.05;3.33;;;;;;;;;;5093142;28;20028;-85
2022/05/05 14:52:00;;;;;;;4.53;1.92;;;;;;;;;;5092820;28;20081;-85
2022/05/05 14:54:26;;;;;;;1.92;1.70;;;;;;;;;;5090055;28;20066;-83
2022/05/05 14:56:52;;;;;;;3.00;1.77;;;;;;;;;;5093267;28;20030;-85
2022/05/05 14:59:17;;;;;;;1.90;1.52;;;;;;;;;;5091987;28;20375;-86
2022/05/05 15:01:43;;;;;;;5.75;2.20;;;;;;;;;;5091689;28;20040;-87
2022/05/05 15:04:08;;;;;;;5.22;1.80;;;;;;;;;;5092108;28;20028;-84
2022/05/05 15:06:34;;;;;;;2.58;1.65;;;;;;;;;;5092568;28;20028;-83
2022/05/05 15:08:59;;;;;;;2.83;1.70;;;;;;;;;;5093017;28;20028;-86
2022/05/05 15:11:25;;;;;;;2.83;1.83;;;;;;;;;;5093153;28;20028;-88
2022/05/05 15:13:50;;;;;;;2.60;1.90;;;;;;;;;;5093023;28;20024;-85
2022/05/05 15:16:18;;;;;;;3.35;1.80;;;;;;;;;;5092724;28;20028;-85
2022/05/05 15:18:44;;;;;;;2.45;1.60;;;;;;;;;;5092675;28;20016;-84
2022/05/05 15:21:09;;;;;;;4.22;3.28;;;;;;;;;;5092817;28;20027;-85
2022/05/05 15:23:35;;;;;;;6.05;2.22;;;;;;;;;;5092650;28;20044;-84
2022/05/05 15:26:01;;;;;;;2.30;1.80;;;;;;;;;;5092724;28;20332;-86
2022/05/05 15:28:27;;;;;;;2.20;1.60;;;;;;;;;;5091288;28;20032;-85
2022/05/05 15:30:53;;;;;;;9.07;1.65;;;;;;;;;;5091431;28;20080;-86
2022/05/05 15:33:19;;;;;;;2.17;1.40;;;;;;;;;;5090658;28;20471;-85
2022/05/05 15:35:45;;;;;;;2.33;1.50;;;;;;;;;;5091292;28;20024;-89
2022/05/05 15:38:11;;;;;;;2.47;1.70;;;;;;;;;;5092190;28;20520;-83
2022/05/05 15:40:36;;;;;;;3.97;1.80;;;;;;;;;;5091536;28;20073;-86
2022/05/05 15:43:02;;;;;;;2.80;2.05;;;;;;;;;;5092664;28;20422;-87